Time;durP1;ratioP1;P1;durP2;ratioP2;P2;SDS_P1;SDS_P2;PMS_P1;PMS_P2;Temp;Humidity;BMP_temperature;BMP_pressure;BME280_temperature;BME280_humidity;BME280_pressure;Samples;Min_cycle;Max_cycle;Signal;HPM_P1;HPM_P2
2022/11/13 00:02:00;;;;;;;15.63;13.73;;;6.80;99.90;;;;;;4994987;28;20439;-76
2022/11/13 00:04:25;;;;;;;16.38;12.35;;;6.90;99.90;;;;;;4994289;28;20112;-77
2022/11/13 00:06:51;;;;;;;14.48;12.98;;;7.20;99.90;;;;;;4994561;28;20050;-77
2022/11/13 00:09:17;;;;;;;14.93;11.80;;;6.90;99.90;;;;;;4993778;28;20092;-77
2022/11/13 00:11:42;;;;;;;16.70;12.02;;;6.90;99.90;;;;;;4993602;28;20385;-77
2022/11/13 00:14:08;;;;;;;17.92;12.68;;;6.90;99.90;;;;;;4994389;28;20049;-77
2022/11/13 00:16:34;;;;;;;15.15;11.57;;;6.90;99.90;;;;;;4994259;28;20108;-77
2022/11/13 00:19:00;;;;;;;17.63;10.68;;;6.90;99.90;;;;;;5010249;28;20058;-77
2022/11/13 00:21:26;;;;;;;14.50;12.43;;;6.90;99.90;;;;;;4994563;28;20050;-77
2022/11/13 00:23:52;;;;;;;13.77;12.05;;;6.90;99.90;;;;;;4993886;28;20545;-76
2022/11/13 00:26:21;;;;;;;13.77;11.57;;;7.00;99.90;;;;;;4994258;28;20050;-76
2022/11/13 00:28:51;;;;;;;13.57;11.00;;;6.80;99.90;;;;;;4994222;28;20054;-77
2022/11/13 00:31:16;;;;;;;11.93;10.63;;;6.80;99.90;;;;;;4994545;28;20050;-77
2022/11/13 00:33:42;;;;;;;13.43;11.60;;;6.80;99.90;;;;;;4993274;28;20038;-77
2022/11/13 00:36:13;;;;;;;16.13;12.90;;;7.20;99.90;;;;;;4992982;28;20054;-77
2022/11/13 00:38:39;;;;;;;12.32;10.45;;;6.90;99.90;;;;;;4994146;28;20125;-77
2022/11/13 00:41:05;;;;;;;15.80;12.85;;;6.90;99.90;;;;;;4993164;28;20132;-77
2022/11/13 00:43:30;;;;;;;15.95;12.88;;;6.80;99.90;;;;;;5009413;28;20046;-77
2022/11/13 00:45:56;;;;;;;15.80;13.23;;;6.80;99.90;;;;;;4993679;28;20082;-77
2022/11/13 00:48:22;;;;;;;12.90;11.07;;;6.90;99.90;;;;;;5009277;28;20046;-77
2022/11/13 00:50:48;;;;;;;12.23;9.32;;;6.80;99.90;;;;;;4994420;28;20128;-77
2022/11/13 00:53:14;;;;;;;12.00;10.68;;;6.90;99.90;;;;;;4993119;28;20469;-77
2022/11/13 00:55:41;;;;;;;21.50;14.60;;;6.80;99.90;;;;;;5009744;28;20477;-77
2022/11/13 00:58:06;;;;;;;17.10;11.90;;;6.90;99.90;;;;;;4993757;28;20042;-76
2022/11/13 01:00:32;;;;;;;15.80;13.20;;;7.60;99.90;;;;;;4993717;28;20141;-76
2022/11/13 01:02:59;;;;;;;23.30;13.63;;;6.90;99.90;;;;;;4993220;28;20046;-77
2022/11/13 01:05:25;;;;;;;14.48;11.38;;;7.00;99.90;;;;;;5009388;28;20050;-77
2022/11/13 01:07:51;;;;;;;13.50;12.10;;;7.00;99.90;;;;;;4992599;28;20430;-76
2022/11/13 01:10:17;;;;;;;15.88;14.20;;;7.00;99.90;;;;;;4993365;28;20046;-76
2022/11/13 01:12:43;;;;;;;16.58;12.73;;;7.30;99.90;;;;;;4993566;28;20042;-76
2022/11/13 01:15:08;;;;;;;17.75;13.57;;;7.00;99.90;;;;;;4993533;28;20523;-76
2022/11/13 01:17:34;;;;;;;16.33;14.65;;;7.00;99.90;;;;;;4993381;28;20054;-76
2022/11/13 01:20:00;;;;;;;18.10;15.40;;;7.00;99.90;;;;;;4992774;28;20098;-76
2022/11/13 01:22:26;;;;;;;15.80;12.63;;;7.00;99.90;;;;;;4993068;28;20503;-76
2022/11/13 01:24:52;;;;;;;19.63;15.88;;;7.00;99.90;;;;;;4993193;28;20136;-76
2022/11/13 01:27:17;;;;;;;16.10;14.07;;;7.00;99.90;;;;;;4993335;28;20137;-76
2022/11/13 01:29:43;;;;;;;13.85;12.40;;;7.10;99.90;;;;;;4993182;28;20053;-76
2022/11/13 01:32:09;;;;;;;19.92;14.93;;;7.30;99.90;;;;;;4992323;28;20477;-76
2022/11/13 01:34:34;;;;;;;14.95;12.13;;;7.00;99.90;;;;;;4992301;28;20054;-76
2022/11/13 01:37:00;;;;;;;14.80;13.32;;;7.00;99.90;;;;;;4993120;28;20038;-76
2022/11/13 01:39:26;;;;;;;15.77;12.93;;;7.10;99.90;;;;;;4993588;28;20070;-76
2022/11/13 01:41:51;;;;;;;15.15;13.05;;;7.10;99.90;;;;;;4992994;28;20100;-76
2022/11/13 01:44:19;;;;;;;14.95;11.40;;;7.10;99.90;;;;;;4991900;28;20104;-76
2022/11/13 01:46:47;;;;;;;16.40;11.48;;;7.00;99.90;;;;;;4991682;28;20046;-76
2022/11/13 01:49:35;;;;;;;16.25;12.57;;;7.10;99.90;;;;;;4992301;28;20054;-76
2022/11/13 01:52:05;;;;;;;15.45;11.32;;;7.10;99.90;;;;;;4992892;28;20054;-76
2022/11/13 01:54:35;;;;;;;12.25;10.40;;;7.10;99.90;;;;;;4992139;28;20063;-76
2022/11/13 01:57:03;;;;;;;13.50;11.73;;;7.20;99.90;;;;;;4992033;28;20133;-76
2022/11/13 01:59:42;;;;;;;17.33;12.07;;;7.10;99.90;;;;;;4992984;28;20104;-77
2022/11/13 02:02:08;;;;;;;15.77;12.98;;;7.10;99.90;;;;;;4993058;28;20054;-76
2022/11/13 02:04:35;;;;;;;15.60;12.38;;;7.10;99.90;;;;;;4993064;28;20409;-76
2022/11/13 02:07:07;;;;;;;16.02;12.48;;;7.10;99.90;;;;;;4992894;28;20077;-76
2022/11/13 02:09:40;;;;;;;16.65;13.95;;;7.50;99.90;;;;;;4991411;28;20450;-76
2022/11/13 02:12:09;;;;;;;18.52;13.68;;;7.00;99.90;;;;;;4992902;28;20116;-76
2022/11/13 02:14:38;;;;;;;13.43;11.68;;;7.10;99.90;;;;;;4992722;28;20039;-76
2022/11/13 02:17:07;;;;;;;15.55;13.20;;;7.00;99.90;;;;;;4991280;28;20141;-76
2022/11/13 02:19:39;;;;;;;18.95;13.73;;;7.00;99.90;;;;;;4992559;28;20050;-76
2022/11/13 02:22:23;;;;;;;19.42;15.02;;;7.40;99.90;;;;;;4992514;28;20053;-76
2022/11/13 02:24:49;;;;;;;;;;;7.00;99.90;;;;;;4991565;28;20081;-76
2022/11/13 02:27:50;;;;;;;17.70;14.52;;;6.90;99.90;;;;;;4992701;28;20288;-76
2022/11/13 02:30:20;;;;;;;16.00;13.18;;;6.90;99.90;;;;;;4932344;29;20055;-76
2022/11/13 02:32:51;;;;;;;19.30;13.82;;;6.90;99.90;;;;;;4981829;28;20149;-76
2022/11/13 02:35:21;;;;;;;16.42;13.57;;;6.90;99.90;;;;;;4992673;28;20401;-76
2022/11/13 02:37:47;;;;;;;17.02;14.18;;;6.90;99.90;;;;;;4992673;28;20053;-76
2022/11/13 02:40:13;;;;;;;15.38;12.18;;;6.90;99.90;;;;;;4992279;28;20094;-76
2022/11/13 02:42:38;;;;;;;14.43;12.73;;;6.90;99.90;;;;;;4991481;28;20105;-77
2022/11/13 02:45:05;;;;;;;14.70;13.00;;;6.90;99.90;;;;;;4992259;28;20166;-76
2022/11/13 02:47:31;;;;;;;25.10;14.38;;;6.90;99.90;;;;;;4992438;28;20057;-76
2022/11/13 02:49:57;;;;;;;14.68;11.98;;;7.80;99.90;;;;;;4992408;28;20042;-75
2022/11/13 02:52:22;;;;;;;17.13;13.23;;;6.90;99.90;;;;;;4991496;28;20072;-76
2022/11/13 02:54:48;;;;;;;16.05;13.48;;;6.90;99.90;;;;;;4991541;28;20054;-76
2022/11/13 02:57:14;;;;;;;17.52;13.65;;;6.80;99.90;;;;;;4991252;28;20053;-76
2022/11/13 02:59:40;;;;;;;18.08;13.60;;;6.80;99.90;;;;;;4992383;28;20270;-76
2022/11/13 03:02:06;;;;;;;16.80;14.45;;;6.80;99.90;;;;;;4992684;28;20050;-76
2022/11/13 03:04:31;;;;;;;16.10;13.82;;;6.80;99.90;;;;;;4994708;28;20501;-76
2022/11/13 03:06:57;;;;;;;19.17;14.48;;;6.80;99.90;;;;;;4996252;28;20050;-76
2022/11/13 03:09:23;;;;;;;20.35;14.25;;;6.80;99.90;;;;;;4995977;28;20530;-76
2022/11/13 03:11:49;;;;;;;17.65;14.45;;;6.70;99.90;;;;;;4995597;28;20050;-76
2022/11/13 03:14:15;;;;;;;18.50;15.60;;;6.70;99.90;;;;;;4995722;28;20049;-76
2022/11/13 03:16:40;;;;;;;15.95;14.18;;;6.70;99.90;;;;;;4978145;28;20520;-76
2022/11/13 03:19:06;;;;;;;16.77;14.98;;;6.70;99.90;;;;;;4995042;28;20528;-76
2022/11/13 03:21:33;;;;;;;22.45;16.63;;;6.60;99.90;;;;;;4994727;28;20053;-77
2022/11/13 03:23:58;;;;;;;18.48;14.60;;;6.60;99.90;;;;;;4995432;28;20054;-76
2022/11/13 03:26:26;;;;;;;19.20;14.27;;;7.50;99.90;;;;;;4995397;28;20042;-76
2022/11/13 03:28:52;;;;;;;15.75;13.95;;;6.60;99.90;;;;;;4995493;28;20054;-77
2022/11/13 03:31:18;;;;;;;15.93;13.77;;;6.60;99.90;;;;;;4995390;28;20047;-76
2022/11/13 03:33:43;;;;;;;17.10;15.30;;;6.60;99.90;;;;;;4995433;28;20049;-76
2022/11/13 03:36:09;;;;;;;17.80;14.18;;;6.60;99.90;;;;;;4995198;28;20492;-76
2022/11/13 03:38:35;;;;;;;19.58;14.95;;;6.60;99.90;;;;;;4995698;28;20443;-76
2022/11/13 03:41:00;;;;;;;17.50;14.07;;;6.60;99.90;;;;;;4978230;28;20550;-77
2022/11/13 03:43:26;;;;;;;16.58;12.25;;;6.60;99.90;;;;;;4994646;28;20046;-76
2022/11/13 03:45:52;;;;;;;12.27;10.30;;;6.60;99.90;;;;;;4978036;28;20132;-77
2022/11/13 03:48:18;;;;;;;14.82;12.30;;;6.70;99.90;;;;;;4994746;28;20068;-76
2022/11/13 03:50:46;;;;;;;16.63;13.35;;;6.60;99.90;;;;;;4995044;28;20130;-76
2022/11/13 03:53:12;;;;;;;16.45;13.95;;;6.60;99.90;;;;;;4995030;28;20042;-76
2022/11/13 03:55:38;;;;;;;16.52;13.65;;;6.60;99.90;;;;;;4994766;28;20117;-77
2022/11/13 03:58:04;;;;;;;15.15;12.95;;;6.60;99.90;;;;;;4994025;28;20090;-76
2022/11/13 04:00:30;;;;;;;18.60;14.95;;;7.10;99.90;;;;;;4993644;28;20061;-76
2022/11/13 04:02:56;;;;;;;17.10;13.63;;;6.50;99.90;;;;;;4994884;28;20050;-77
2022/11/13 04:05:22;;;;;;;18.15;15.98;;;6.50;99.90;;;;;;4995098;28;20042;-76
2022/11/13 04:07:48;;;;;;;16.77;14.15;;;6.50;99.90;;;;;;4994891;28;20086;-76
2022/11/13 04:10:14;;;;;;;20.95;14.35;;;6.50;99.90;;;;;;4993556;28;20054;-76
2022/11/13 04:12:39;;;;;;;17.63;14.75;;;6.50;99.90;;;;;;4994816;28;20060;-76
2022/11/13 04:15:06;;;;;;;17.10;14.48;;;6.70;99.90;;;;;;4994429;28;20042;-76
2022/11/13 04:17:32;;;;;;;16.30;14.02;;;6.60;99.90;;;;;;4994732;28;20054;-76
2022/11/13 04:19:58;;;;;;;17.80;14.45;;;6.80;99.90;;;;;;4993445;28;20069;-77
2022/11/13 04:22:24;;;;;;;18.67;15.70;;;6.70;99.90;;;;;;4977746;28;20470;-77
2022/11/13 04:24:49;;;;;;;17.90;15.93;;;6.60;99.90;;;;;;4994357;28;20531;-76
2022/11/13 04:27:15;;;;;;;15.00;13.40;;;6.60;99.90;;;;;;4993955;28;20153;-76
2022/11/13 04:29:40;;;;;;;18.48;14.30;;;6.60;99.90;;;;;;4994823;28;20054;-76
2022/11/13 04:32:06;;;;;;;20.23;14.68;;;6.60;99.90;;;;;;4993539;28;20117;-76
2022/11/13 04:34:32;;;;;;;19.05;15.98;;;6.50;99.90;;;;;;4993408;28;20050;-77
2022/11/13 04:36:58;;;;;;;20.73;15.65;;;6.50;99.90;;;;;;4993526;28;20421;-77
2022/11/13 04:39:23;;;;;;;19.13;15.48;;;6.50;99.90;;;;;;4977005;28;20050;-76
2022/11/13 04:44:34;;;;;;;18.10;15.75;;;6.50;99.90;;;;;;4994297;28;20089;-76
2022/11/13 04:46:59;;;;;;;15.60;13.73;;;6.60;99.90;;;;;;4994474;28;20078;-77
2022/11/13 04:49:25;;;;;;;17.52;14.02;;;6.50;99.90;;;;;;4993264;28;20050;-76
2022/11/13 04:51:51;;;;;;;15.38;13.77;;;6.50;99.90;;;;;;4992793;28;20046;-77
2022/11/13 04:54:16;;;;;;;16.88;14.00;;;6.50;99.90;;;;;;4992649;28;20185;-76
2022/11/13 04:56:42;;;;;;;17.25;13.65;;;6.50;99.90;;;;;;4993896;28;20053;-76
2022/11/13 04:59:08;;;;;;;16.00;13.13;;;6.50;99.90;;;;;;4993638;28;20058;-77
2022/11/13 05:01:35;;;;;;;17.13;13.82;;;6.40;99.90;;;;;;4993641;28;20128;-76
2022/11/13 05:04:01;;;;;;;17.42;13.55;;;6.40;99.90;;;;;;4992274;28;20046;-77
2022/11/13 05:06:27;;;;;;;21.27;14.98;;;6.70;99.90;;;;;;4993647;28;20055;-76
2022/11/13 05:08:53;;;;;;;17.38;14.23;;;6.40;99.90;;;;;;4993649;28;20046;-76
2022/11/13 05:11:18;;;;;;;18.10;14.32;;;6.30;99.90;;;;;;4993564;28;20050;-76
2022/11/13 05:13:44;;;;;;;16.77;13.52;;;6.30;99.90;;;;;;4993806;28;20058;-77
2022/11/13 05:16:12;;;;;;;17.50;14.82;;;6.30;99.90;;;;;;4992144;28;20050;-76
2022/11/13 05:18:38;;;;;;;16.02;12.43;;;6.40;99.90;;;;;;4994111;28;20050;-77
2022/11/13 05:21:06;;;;;;;14.38;12.70;;;6.20;99.90;;;;;;4993561;28;20482;-76
2022/11/13 05:23:32;;;;;;;18.20;13.13;;;6.20;99.90;;;;;;4993168;28;20031;-76
2022/11/13 05:26:06;;;;;;;14.07;12.52;;;6.20;99.90;;;;;;4993292;28;20046;-77
2022/11/13 05:28:33;;;;;;;13.30;11.73;;;6.20;99.90;;;;;;4992582;28;20054;-76
2022/11/13 05:31:07;;;;;;;14.48;11.57;;;6.20;99.90;;;;;;4993164;28;20050;-77
2022/11/13 05:33:34;;;;;;;15.02;11.65;;;6.20;99.90;;;;;;4993747;28;20046;-77
2022/11/13 05:36:02;;;;;;;15.32;11.90;;;6.90;99.90;;;;;;4992037;28;20046;-77
2022/11/13 05:38:28;;;;;;;16.40;12.05;;;6.20;99.90;;;;;;4993204;28;20165;-76
2022/11/13 05:40:53;;;;;;;13.88;12.23;;;6.50;99.90;;;;;;4992286;28;20067;-76
2022/11/13 05:43:19;;;;;;;14.45;12.48;;;6.10;99.90;;;;;;4993003;28;20039;-76
2022/11/13 05:45:45;;;;;;;13.98;11.77;;;6.40;99.90;;;;;;4993108;28;20046;-76
2022/11/13 05:48:10;;;;;;;17.67;12.25;;;6.20;99.90;;;;;;4991846;28;20060;-76
2022/11/13 05:50:36;;;;;;;14.00;12.57;;;6.20;99.90;;;;;;4992935;28;20059;-76
2022/11/13 05:53:01;;;;;;;11.15;10.05;;;6.10;99.90;;;;;;4993062;28;20046;-76
2022/11/13 05:55:27;;;;;;;12.63;11.18;;;6.90;99.90;;;;;;4993168;28;20073;-76
2022/11/13 05:57:53;;;;;;;15.07;12.63;;;6.20;99.90;;;;;;4992221;28;20462;-76
2022/11/13 06:00:19;;;;;;;13.43;11.32;;;6.00;99.90;;;;;;4992011;28;20047;-76
2022/11/13 06:02:44;;;;;;;13.30;11.98;;;6.00;99.90;;;;;;4992934;28;20133;-76
2022/11/13 06:05:10;;;;;;;15.82;13.15;;;6.00;99.90;;;;;;4992885;28;20046;-77
2022/11/13 06:07:36;;;;;;;16.33;13.45;;;6.00;99.90;;;;;;4992911;28;20126;-76
2022/11/13 06:10:01;;;;;;;16.80;13.65;;;6.20;99.90;;;;;;4992454;28;20046;-77
2022/11/13 06:12:28;;;;;;;13.88;12.07;;;6.00;99.90;;;;;;4992896;28;20047;-76
2022/11/13 06:14:54;;;;;;;12.60;11.27;;;6.00;99.90;;;;;;4992923;28;20120;-76
2022/11/13 06:17:20;;;;;;;13.50;11.35;;;5.80;99.90;;;;;;4991493;28;20050;-75
2022/11/13 06:19:47;;;;;;;12.60;11.30;;;5.80;99.90;;;;;;4992790;28;20097;-76
2022/11/13 06:22:12;;;;;;;13.75;11.60;;;5.80;99.90;;;;;;4991883;28;20062;-76
2022/11/13 06:24:38;;;;;;;13.73;11.32;;;5.80;99.90;;;;;;4992382;28;20403;-76
2022/11/13 06:27:04;;;;;;;12.43;10.70;;;6.30;99.90;;;;;;4992465;28;20475;-76
2022/11/13 06:29:29;;;;;;;16.02;11.23;;;5.70;99.90;;;;;;4992545;28;20497;-76
2022/11/13 06:31:55;;;;;;;13.75;12.02;;;5.70;99.90;;;;;;5007860;28;20057;-76
2022/11/13 06:34:21;;;;;;;11.13;9.90;;;5.70;99.90;;;;;;5008289;28;20046;-76
2022/11/13 06:36:46;;;;;;;14.70;11.55;;;5.80;99.90;;;;;;4991675;28;20050;-76
2022/11/13 06:39:12;;;;;;;11.48;10.15;;;5.70;99.90;;;;;;4996098;28;20129;-76
2022/11/13 06:41:38;;;;;;;17.10;12.77;;;6.10;99.90;;;;;;4995921;28;20054;-78
2022/11/13 06:44:04;;;;;;;12.98;10.93;;;5.80;99.90;;;;;;4996370;28;20058;-77
2022/11/13 06:46:30;;;;;;;14.95;11.45;;;6.40;99.90;;;;;;4996070;28;20496;-76
2022/11/13 06:48:56;;;;;;;14.18;11.10;;;5.70;99.90;;;;;;4996093;28;20058;-76
2022/11/13 06:51:26;;;;;;;12.50;10.88;;;5.70;99.90;;;;;;4994910;28;20108;-76
2022/11/13 06:53:52;;;;;;;15.30;12.07;;;6.00;99.90;;;;;;4996421;28;20088;-76
2022/11/13 06:56:18;;;;;;;11.88;10.75;;;5.70;99.90;;;;;;4996146;28;20054;-75
2022/11/13 06:58:44;;;;;;;13.00;11.70;;;6.10;99.90;;;;;;4995963;28;20050;-75
2022/11/13 07:01:16;;;;;;;16.48;12.18;;;5.60;99.90;;;;;;4994789;28;20089;-76
2022/11/13 07:03:42;;;;;;;14.90;11.90;;;5.60;99.90;;;;;;4995719;28;20073;-76
2022/11/13 07:06:18;;;;;;;14.63;13.10;;;5.60;99.90;;;;;;4995858;28;20360;-75
2022/11/13 07:08:44;;;;;;;16.15;13.55;;;5.60;99.90;;;;;;4995984;28;20131;-75
2022/11/13 07:11:16;;;;;;;17.85;12.73;;;5.70;99.90;;;;;;4996177;28;20062;-76
2022/11/13 07:13:42;;;;;;;13.90;12.48;;;5.50;99.90;;;;;;4995860;28;20038;-75
2022/11/13 07:16:09;;;;;;;15.38;13.38;;;5.40;99.90;;;;;;4995483;28;20056;-76
2022/11/13 07:18:35;;;;;;;13.80;12.02;;;5.90;99.90;;;;;;4995980;28;20057;-76
2022/11/13 07:21:06;;;;;;;16.88;11.68;;;5.50;99.90;;;;;;4995591;28;20046;-76
2022/11/13 07:23:35;;;;;;;14.65;12.30;;;5.50;99.90;;;;;;4994189;28;20057;-75
2022/11/13 07:26:03;;;;;;;13.80;11.90;;;5.50;99.90;;;;;;4995271;28;20086;-77
2022/11/13 07:28:29;;;;;;;16.25;11.40;;;5.50;99.90;;;;;;4995503;28;20078;-76
2022/11/13 07:30:59;;;;;;;13.13;11.77;;;5.40;99.90;;;;;;4995601;28;20109;-76
2022/11/13 07:33:25;;;;;;;12.80;11.50;;;5.50;99.90;;;;;;4995231;28;20046;-76
2022/11/13 07:35:55;;;;;;;13.88;12.40;;;5.50;99.90;;;;;;4995325;28;20038;-75
2022/11/13 07:38:22;;;;;;;13.35;11.85;;;5.50;99.90;;;;;;4995063;28;20038;-76
2022/11/13 07:40:48;;;;;;;16.58;12.70;;;6.30;99.90;;;;;;4995015;28;20062;-76
2022/11/13 07:43:13;;;;;;;13.73;12.20;;;5.50;99.90;;;;;;4995073;28;20113;-76
2022/11/13 07:45:39;;;;;;;14.98;12.57;;;5.50;99.90;;;;;;4994981;28;20605;-76
2022/11/13 07:48:05;;;;;;;18.25;12.98;;;5.50;99.90;;;;;;4994751;28;20042;-76
2022/11/13 07:50:36;;;;;;;13.63;11.13;;;5.50;99.90;;;;;;4994387;28;20075;-76
2022/11/13 07:53:06;;;;;;;19.27;13.82;;;5.50;99.90;;;;;;4995286;28;20050;-76
2022/11/13 07:55:34;;;;;;;16.50;14.02;;;5.60;99.90;;;;;;4995432;28;20043;-76
2022/11/13 07:58:00;;;;;;;15.18;13.57;;;5.60;99.90;;;;;;4994901;28;20046;-76
2022/11/13 08:00:28;;;;;;;14.35;12.68;;;5.60;99.90;;;;;;4994890;28;20056;-76
2022/11/13 08:02:54;;;;;;;16.13;13.73;;;5.70;99.90;;;;;;4995078;28;20038;-76
2022/11/13 08:05:19;;;;;;;16.27;13.25;;;6.00;99.90;;;;;;4994819;28;20049;-76
2022/11/13 08:07:51;;;;;;;16.38;12.88;;;5.80;99.90;;;;;;4994659;28;20113;-76
2022/11/13 08:10:19;;;;;;;16.60;13.75;;;5.80;99.90;;;;;;4994789;28;20054;-77
2022/11/13 08:12:45;;;;;;;14.15;12.65;;;6.20;99.90;;;;;;4994688;28;20092;-76
2022/11/13 08:15:12;;;;;;;15.88;13.32;;;6.20;99.90;;;;;;4993575;28;20416;-76
2022/11/13 08:17:38;;;;;;;14.07;12.27;;;6.00;99.90;;;;;;4993247;28;20464;-76
2022/11/13 08:20:05;;;;;;;17.42;13.90;;;6.60;99.90;;;;;;4994506;28;20084;-76
2022/11/13 08:22:31;;;;;;;19.95;13.60;;;6.10;99.90;;;;;;4994342;28;20129;-76
2022/11/13 08:24:57;;;;;;;15.18;13.18;;;6.60;99.90;;;;;;4994829;28;20147;-76
2022/11/13 08:27:23;;;;;;;14.65;13.10;;;6.20;99.90;;;;;;4994459;28;20045;-77
2022/11/13 08:29:49;;;;;;;14.98;13.45;;;6.20;99.90;;;;;;4994551;28;20048;-76
2022/11/13 08:32:16;;;;;;;17.58;13.18;;;6.60;99.90;;;;;;4993189;28;20046;-77
2022/11/13 08:34:42;;;;;;;16.77;12.95;;;6.40;99.90;;;;;;4994291;28;20058;-77
2022/11/13 08:37:08;;;;;;;14.68;13.05;;;6.40;99.90;;;;;;4994290;28;20217;-77
2022/11/13 08:39:34;;;;;;;17.52;14.10;;;6.50;99.90;;;;;;4994190;28;20153;-77
2022/11/13 08:42:01;;;;;;;19.67;14.60;;;6.50;99.90;;;;;;4993397;28;20047;-77
2022/11/13 08:44:26;;;;;;;20.67;14.95;;;6.50;99.90;;;;;;4994324;28;20078;-77
2022/11/13 08:46:52;;;;;;;17.77;14.55;;;6.60;99.90;;;;;;4993789;28;20065;-77
2022/11/13 08:49:18;;;;;;;21.67;15.90;;;6.70;99.90;;;;;;4993956;28;20104;-77
2022/11/13 08:51:43;;;;;;;21.83;14.85;;;6.90;99.90;;;;;;4994545;28;20065;-77
2022/11/13 08:54:09;;;;;;;21.55;15.73;;;6.80;99.90;;;;;;4993750;28;20085;-77
2022/11/13 08:56:35;;;;;;;19.00;16.58;;;6.90;99.90;;;;;;4994270;28;20049;-78
2022/11/13 08:59:00;;;;;;;18.05;15.85;;;7.00;99.90;;;;;;4993786;28;20532;-77
2022/11/13 09:01:26;;;;;;;17.25;15.45;;;7.00;99.90;;;;;;4992677;28;20129;-78
2022/11/13 09:03:52;;;;;;;20.48;15.40;;;7.10;99.90;;;;;;4993036;28;20093;-77
2022/11/13 09:06:17;;;;;;;20.52;15.73;;;7.20;99.90;;;;;;4993851;28;20046;-78
2022/11/13 09:08:43;;;;;;;25.17;14.90;;;7.30;99.90;;;;;;4992414;28;20046;-77
2022/11/13 09:11:09;;;;;;;18.13;15.32;;;7.40;99.90;;;;;;4993618;28;20138;-77
2022/11/13 09:13:34;;;;;;;15.90;13.70;;;7.50;99.90;;;;;;4993617;28;20046;-77
2022/11/13 09:16:01;;;;;;;21.48;14.98;;;7.60;99.90;;;;;;4992945;28;20058;-77
2022/11/13 09:18:27;;;;;;;17.50;13.15;;;7.70;99.90;;;;;;4993756;28;20058;-77
2022/11/13 09:20:54;;;;;;;23.05;13.90;;;7.60;99.90;;;;;;4993640;28;20058;-77
2022/11/13 09:23:20;;;;;;;17.98;13.82;;;7.80;99.90;;;;;;4993531;28;20054;-77
2022/11/13 09:25:46;;;;;;;20.55;13.85;;;7.80;99.90;;;;;;4993225;28;20085;-77
2022/11/13 09:28:12;;;;;;;21.70;14.55;;;7.90;99.90;;;;;;4992982;28;20085;-83
2022/11/13 09:30:39;;;;;;;20.75;14.90;;;8.00;99.90;;;;;;4993363;28;20061;-77
2022/11/13 09:33:06;;;;;;;20.02;14.23;;;8.00;99.90;;;;;;4993617;28;20208;-76
2022/11/13 09:35:35;;;;;;;15.25;13.32;;;8.30;99.90;;;;;;4993622;28;20478;-78
2022/11/13 09:38:07;;;;;;;20.77;13.85;;;8.20;99.90;;;;;;4993241;28;20101;-76
2022/11/13 09:40:38;;;;;;;16.55;12.27;;;8.30;99.90;;;;;;4992371;28;20144;-76
2022/11/13 09:43:10;;;;;;;15.98;12.32;;;8.50;99.90;;;;;;4993411;28;20042;-77
2022/11/13 09:45:38;;;;;;;17.08;12.98;;;8.60;99.90;;;;;;4992091;28;20057;-77
2022/11/13 09:48:35;;;;;;;16.33;13.07;;;8.70;99.90;;;;;;4993566;28;20090;-78
2022/11/13 09:51:08;;;;;;;17.92;12.80;;;8.70;99.90;;;;;;4992494;28;20062;-79
2022/11/13 09:53:37;;;;;;;17.85;13.10;;;8.80;99.90;;;;;;4992409;28;20484;-79
2022/11/13 09:56:23;;;;;;;18.08;12.23;;;8.90;99.90;;;;;;4993009;28;20054;-78
2022/11/13 09:59:22;;;;;;;15.77;12.38;;;8.90;99.90;;;;;;4992381;28;20088;-80
2022/11/13 10:02:07;;;;;;;16.48;12.30;;;9.00;99.90;;;;;;4977071;28;20062;-79
2022/11/13 10:04:45;;;;;;;16.58;11.82;;;9.00;99.90;;;;;;4992384;28;20042;-78
2022/11/13 10:07:19;;;;;;;17.80;11.82;;;9.00;99.90;;;;;;4992237;28;20409;-79
2022/11/13 10:09:59;;;;;;;17.55;13.65;;;9.10;99.90;;;;;;4991539;28;20047;-74
2022/11/13 10:12:29;;;;;;;17.60;11.40;;;9.20;99.90;;;;;;4994179;28;20042;-78
2022/11/13 10:14:59;;;;;;;13.82;10.65;;;9.20;99.90;;;;;;4997012;28;20042;-78
2022/11/13 10:17:34;;;;;;;15.07;11.05;;;9.30;99.90;;;;;;4996767;28;20059;-76
2022/11/13 10:20:14;;;;;;;16.48;11.18;;;9.40;99.90;;;;;;4996479;28;20063;-81
2022/11/13 10:22:52;;;;;;;16.25;11.75;;;9.50;99.90;;;;;;4997135;28;20455;-79
2022/11/13 10:25:25;;;;;;;15.05;12.05;;;9.40;99.90;;;;;;4996584;28;20527;-78
2022/11/13 10:27:59;;;;;;;14.35;11.10;;;9.50;99.90;;;;;;4996152;28;20086;-78
2022/11/13 10:30:26;;;;;;;13.75;10.43;;;9.50;99.90;;;;;;4996549;28;20467;-78
2022/11/13 10:32:52;;;;;;;10.93;9.80;;;9.40;99.90;;;;;;4995471;28;20045;-79
2022/11/13 10:35:40;;;;;;;13.82;10.57;;;9.50;99.90;;;;;;4996417;28;20046;-78
2022/11/13 10:38:22;;;;;;;13.95;11.25;;;9.60;99.90;;;;;;4996844;28;20050;-80
2022/11/13 10:40:48;;;;;;;11.80;9.98;;;9.70;99.90;;;;;;4996242;28;20047;-81
2022/11/13 10:43:19;;;;;;;11.52;9.88;;;9.80;99.90;;;;;;4996168;28;20052;-81
2022/11/13 10:46:05;;;;;;;12.70;8.77;;;9.80;99.90;;;;;;4996277;28;20105;-80
2022/11/13 10:48:33;;;;;;;12.23;10.27;;;9.90;99.90;;;;;;4995498;28;20050;-79
2022/11/13 10:51:06;;;;;;;13.07;9.63;;;10.00;99.90;;;;;;4995916;28;20045;-80
2022/11/13 10:53:41;;;;;;;13.23;9.88;;;10.10;99.90;;;;;;4996817;28;20053;-80
2022/11/13 10:56:33;;;;;;;12.30;10.40;;;10.20;99.90;;;;;;4996200;28;20068;-80
2022/11/13 10:59:17;;;;;;;12.35;9.18;;;10.40;99.90;;;;;;4995999;28;20104;-79
2022/11/13 11:01:44;;;;;;;11.93;9.70;;;10.60;99.90;;;;;;4995926;28;20046;-79
2022/11/13 11:04:20;;;;;;;12.15;9.40;;;10.60;99.90;;;;;;4995147;28;20046;-80
2022/11/13 11:06:47;;;;;;;12.00;10.80;;;10.80;99.90;;;;;;4996136;28;20042;-80
2022/11/13 11:09:24;;;;;;;10.90;9.55;;;10.90;99.90;;;;;;4996031;28;20494;-79
2022/11/13 11:12:18;;;;;;;11.02;9.68;;;11.00;99.90;;;;;;4996005;28;20050;-79
2022/11/13 11:14:50;;;;;;;;;;;11.10;99.90;;;;;;4992639;28;20128;-79
2022/11/13 11:17:17;;;;;;;11.25;8.35;;;11.10;99.90;;;;;;4995840;28;19977;-79
2022/11/13 11:19:46;;;;;;;11.20;8.60;;;11.10;99.90;;;;;;4996199;28;20370;-79
2022/11/13 11:22:17;;;;;;;12.48;9.98;;;11.20;99.90;;;;;;4995574;28;20133;-79
2022/11/13 11:25:14;;;;;;;14.80;10.60;;;11.20;99.90;;;;;;4995024;28;20046;-79
2022/11/13 11:27:45;;;;;;;21.42;11.23;;;11.30;99.90;;;;;;4995143;28;20058;-80
2022/11/13 11:30:25;;;;;;;14.52;10.50;;;11.30;99.90;;;;;;4995676;28;20140;-80
2022/11/13 11:33:13;;;;;;;13.80;10.38;;;11.40;99.90;;;;;;4995494;28;20056;-78
2022/11/13 11:35:51;;;;;;;15.30;11.95;;;11.50;99.90;;;;;;4993993;28;20053;-78
2022/11/13 11:38:43;;;;;;;14.82;11.65;;;11.50;99.90;;;;;;4994675;28;20055;-78
2022/11/13 11:41:14;;;;;;;14.77;10.77;;;11.60;99.90;;;;;;4994870;28;20046;-78
2022/11/13 11:43:49;;;;;;;14.23;10.77;;;11.70;99.90;;;;;;4994599;28;20113;-79
2022/11/13 11:46:22;;;;;;;13.25;9.23;;;11.70;99.90;;;;;;4993601;28;20050;-79
2022/11/13 11:48:49;;;;;;;14.95;10.57;;;11.70;99.90;;;;;;4994781;28;20046;-78
2022/11/13 11:51:21;;;;;;;15.68;9.85;;;11.80;99.90;;;;;;4993541;28;20112;-78
2022/11/13 11:54:05;;;;;;;10.38;8.73;;;11.80;99.90;;;;;;4994444;28;20042;-81
2022/11/13 11:56:42;;;;;;;8.45;7.57;;;11.80;99.90;;;;;;4994012;28;20101;-78
2022/11/13 11:59:24;;;;;;;12.18;9.13;;;11.90;99.90;;;;;;4994278;28;20050;-78
2022/11/13 12:02:04;;;;;;;10.68;9.63;;;12.00;99.90;;;;;;4994323;28;20050;-73
2022/11/13 12:04:45;;;;;;;10.40;8.70;;;12.10;99.90;;;;;;4994067;28;20106;-79
2022/11/13 12:07:50;;;;;;;8.63;7.72;;;12.10;99.90;;;;;;4993012;28;20118;-79
2022/11/13 12:10:53;;;;;;;10.20;8.93;;;12.20;99.90;;;;;;4994416;28;20058;-79
2022/11/13 12:13:30;;;;;;;11.80;8.63;;;12.30;99.90;;;;;;4993473;28;20133;-78
2022/11/13 12:16:02;;;;;;;9.68;7.50;;;12.40;99.90;;;;;;4994283;28;20337;-79
2022/11/13 12:18:58;;;;;;;8.90;7.63;;;12.40;99.90;;;;;;4976576;28;20058;-79
2022/11/13 12:21:43;;;;;;;10.25;7.65;;;12.40;99.90;;;;;;4994221;28;20054;-78
2022/11/13 12:24:24;;;;;;;9.55;7.43;;;12.40;99.90;;;;;;4994040;28;20187;-78
2022/11/13 12:27:18;;;;;;;7.85;7.05;;;12.50;99.90;;;;;;4997970;28;20181;-80
2022/11/13 12:29:57;;;;;;;9.63;7.47;;;12.50;99.90;;;;;;5000273;28;20065;-79
2022/11/13 12:32:47;;;;;;;11.02;8.15;;;12.50;99.90;;;;;;4993055;28;20243;-79
2022/11/13 12:35:23;;;;;;;8.38;7.60;;;12.50;99.90;;;;;;4992339;28;20054;-79
2022/11/13 12:38:00;;;;;;;9.30;8.32;;;12.60;99.90;;;;;;4993899;28;20121;-78
2022/11/13 12:40:34;;;;;;;11.68;7.57;;;12.50;99.90;;;;;;4993594;28;20057;-78
2022/11/13 12:43:48;;;;;;;10.18;8.73;;;12.60;99.90;;;;;;4993125;28;20062;-82
2022/11/13 12:46:14;;;;;;;9.25;7.60;;;12.60;99.90;;;;;;4975760;28;20058;-72
2022/11/13 12:48:42;;;;;;;11.30;8.32;;;12.60;99.90;;;;;;4993378;28;20046;-76
2022/11/13 12:51:14;;;;;;;10.95;8.43;;;12.60;99.90;;;;;;4992578;28;20124;-76
2022/11/13 12:53:44;;;;;;;8.88;7.57;;;12.70;99.90;;;;;;4993853;28;20042;-76